createdAt,value
2023-01-17T00:00:35.438Z,0.0
2023-01-17T00:05:36.401Z,0.0
2023-01-17T00:10:37.328Z,0.0
2023-01-17T00:15:38.218Z,0.0
2023-01-17T00:20:39.151Z,0.0
2023-01-17T00:25:40.044Z,0.0
2023-01-17T00:30:40.965Z,0.0
2023-01-17T00:35:41.877Z,0.0
2023-01-17T00:40:42.815Z,0.0
2023-01-17T00:45:43.752Z,0.0
2023-01-17T00:50:44.949Z,0.0
2023-01-17T00:55:46.118Z,0.0
2023-01-17T01:00:47.253Z,0.0
2023-01-17T01:05:48.199Z,0.0
2023-01-17T01:10:49.130Z,0.0
2023-01-17T01:15:50.265Z,0.0
2023-01-17T01:20:56.282Z,0.0
2023-01-17T01:25:57.237Z,0.0
2023-01-17T01:30:58.376Z,0.0
2023-01-17T01:35:59.269Z,0.0
2023-01-17T01:41:00.197Z,0.0
2023-01-17T01:46:01.181Z,0.0
2023-01-17T01:51:02.211Z,0.0
2023-01-17T01:56:03.120Z,0.0
2023-01-17T02:01:04.152Z,0.0
2023-01-17T02:06:05.109Z,0.0
2023-01-17T02:11:06.072Z,0.0
2023-01-17T02:16:07.024Z,0.0
2023-01-17T02:21:08.017Z,0.0
2023-01-17T02:26:08.934Z,0.0
2023-01-17T02:31:09.964Z,0.0
2023-01-17T02:36:10.857Z,0.0
2023-01-17T02:41:11.764Z,0.0
2023-01-17T02:46:12.862Z,0.0
2023-01-17T02:51:13.819Z,0.0
2023-01-17T02:56:14.716Z,0.0
2023-01-17T03:01:15.788Z,0.0
2023-01-17T03:06:16.844Z,0.0
2023-01-17T03:11:17.773Z,0.0
2023-01-17T03:16:18.780Z,0.0
2023-01-17T03:21:19.737Z,0.0
2023-01-17T03:26:20.659Z,0.0
2023-01-17T03:31:21.564Z,0.0
2023-01-17T03:36:22.489Z,0.0
2023-01-17T03:41:23.497Z,0.0
2023-01-17T03:46:24.436Z,0.0
2023-01-17T03:51:25.378Z,0.0
2023-01-17T03:56:26.478Z,0.0
2023-01-17T04:01:27.512Z,0.0
2023-01-17T04:06:28.541Z,0.0
2023-01-17T04:11:29.554Z,0.0
2023-01-17T04:16:30.504Z,0.0
2023-01-17T04:21:31.607Z,0.0
2023-01-17T04:26:32.539Z,0.0
2023-01-17T04:31:33.742Z,0.0
2023-01-17T04:36:34.814Z,0.0
2023-01-17T04:41:35.818Z,0.0
2023-01-17T04:46:36.728Z,0.0
2023-01-17T04:51:37.655Z,0.0
2023-01-17T04:56:38.673Z,0.0
2023-01-17T05:01:39.973Z,0.0
2023-01-17T05:06:40.979Z,0.0
2023-01-17T05:11:41.931Z,0.0
2023-01-17T05:16:42.858Z,0.0
2023-01-17T05:21:43.797Z,0.0
2023-01-17T05:26:45.068Z,0.0
2023-01-17T05:31:46.415Z,0.0
2023-01-17T05:36:47.500Z,0.0
2023-01-17T05:41:48.551Z,0.0
2023-01-17T05:46:49.829Z,0.0
2023-01-17T05:51:51.193Z,0.0
2023-01-17T05:56:53.678Z,0.0
2023-01-17T06:01:54.672Z,0.0
2023-01-17T06:06:55.737Z,0.0
2023-01-17T06:11:56.704Z,0.0
2023-01-17T06:16:57.637Z,0.0
2023-01-17T06:21:58.644Z,0.0
2023-01-17T06:26:59.844Z,0.0
2023-01-17T06:32:01.754Z,0.0
2023-01-17T06:37:02.904Z,0.4148
2023-01-17T06:42:03.827Z,0.47405
2023-01-17T06:47:04.838Z,0.8296
2023-01-17T06:52:05.753Z,3.67
2023-01-17T06:57:06.709Z,8.13295
2023-01-17T07:02:07.630Z,17.2433
2023-01-17T07:07:08.592Z,19.9359
2023-01-17T07:12:09.578Z,37.917
2023-01-17T07:17:10.523Z,56.5066
2023-01-17T07:22:11.540Z,61.154
2023-01-17T07:27:12.473Z,77.97325
2023-01-17T07:32:13.379Z,94.97695
2023-01-17T07:37:15.286Z,112.6443
2023-01-17T07:42:16.484Z,114.04575
2023-01-17T07:47:17.458Z,114.91285
2023-01-17T07:52:18.474Z,223.16835
2023-01-17T07:57:19.383Z,451.29785
2023-01-17T08:02:20.301Z,603.8348
2023-01-17T08:07:21.279Z,891.90685
2023-01-17T08:12:22.216Z,889.4024
2023-01-17T08:17:23.110Z,504.10015
2023-01-17T08:22:24.068Z,825.1642
2023-01-17T08:27:25.030Z,749.89885
2023-01-17T08:32:25.983Z,724.7812
2023-01-17T08:37:26.922Z,737.50455
2023-01-17T08:42:28.074Z,651.8947
2023-01-17T08:47:29.027Z,744.67725
2023-01-17T08:52:29.973Z,756.1493
2023-01-17T08:57:30.893Z,563.2975
2023-01-17T09:02:31.811Z,498.1046
2023-01-17T09:07:32.784Z,764.44585
2023-01-17T09:12:33.741Z,588.2117
2023-01-17T09:17:34.719Z,698.16525
2023-01-17T09:22:35.741Z,438.46235
2023-01-17T09:27:36.777Z,440.78605
2023-01-17T09:32:37.809Z,370.2631
2023-01-17T09:37:38.743Z,387.80115
2023-01-17T09:42:39.692Z,362.9231
2023-01-17T09:47:40.591Z,509.11275
2023-01-17T09:52:41.591Z,379.9268
2023-01-17T09:57:42.499Z,379.9648
2023-01-17T10:02:43.628Z,331.7376
2023-01-17T10:07:44.915Z,350.8064
2023-01-17T10:12:46.222Z,487.1326
2023-01-17T10:17:47.389Z,651.08275
2023-01-17T10:22:48.309Z,493.4952
2023-01-17T10:27:49.226Z,447.2038
2023-01-17T10:32:50.228Z,495.29985
2023-01-17T10:37:51.140Z,386.43585
2023-01-17T10:42:52.061Z,333.4338
2023-01-17T10:47:53.001Z,406.096
2023-01-17T10:52:53.924Z,364.47285
2023-01-17T10:57:54.833Z,394.07245
2023-01-17T11:02:55.866Z,566.8572
2023-01-17T11:07:56.854Z,564.99555
2023-01-17T11:12:57.744Z,407.9595
2023-01-17T11:17:58.660Z,344.77655
2023-01-17T11:22:59.557Z,892.01345
2023-01-17T11:28:00.484Z,1004.10625
2023-01-17T11:33:01.649Z,687.12095
2023-01-17T11:38:02.589Z,618.93885
2023-01-17T11:43:03.621Z,860.4762
2023-01-17T11:48:04.601Z,701.91125
2023-01-17T11:53:05.514Z,625.5429
2023-01-17T11:58:06.420Z,683.0459
2023-01-17T12:03:07.349Z,785.08525
2023-01-17T12:08:08.319Z,759.1918
2023-01-17T12:13:09.232Z,1449.13465
2023-01-17T12:18:10.152Z,1903.8819
2023-01-17T12:23:11.149Z,1807.68055
2023-01-17T12:28:12.081Z,2077.3609
2023-01-17T12:33:13.121Z,3266.07755
2023-01-17T12:38:23.689Z,996.5058
2023-01-17T12:43:32.491Z,6202.09975
2023-01-17T12:48:33.399Z,6755.5607
2023-01-17T12:53:34.447Z,6823.8494
2023-01-17T12:58:35.370Z,6348.0197
2023-01-17T13:03:36.310Z,5504.25245
2023-01-17T13:08:37.275Z,1390.9717
2023-01-17T13:13:38.192Z,1042.16785
2023-01-17T13:18:39.089Z,1118.1863
2023-01-17T13:23:40.000Z,1102.50015
2023-01-17T13:28:40.935Z,882.71125
2023-01-17T13:33:41.864Z,817.9804
2023-01-17T13:38:42.765Z,811.3249
2023-01-17T13:43:43.731Z,791.1114
2023-01-17T13:48:44.702Z,669.9064
2023-01-17T13:53:46.021Z,636.50935
2023-01-17T13:58:47.113Z,530.11735
2023-01-17T14:03:48.048Z,384.61035
2023-01-17T14:08:49.035Z,324.158
2023-01-17T14:13:49.965Z,296.95625
2023-01-17T14:18:50.909Z,268.68395
2023-01-17T14:23:51.860Z,257.32405
2023-01-17T14:28:52.785Z,245.871
2023-01-17T14:33:53.760Z,206.42325
2023-01-17T14:38:54.677Z,195.4874
2023-01-17T14:43:55.641Z,175.5895
2023-01-17T14:48:56.594Z,155.5243
2023-01-17T14:53:57.529Z,141.02875
2023-01-17T14:58:58.509Z,152.6454
2023-01-17T15:03:59.546Z,140.71315
2023-01-17T15:09:00.501Z,122.97165
2023-01-17T15:14:01.454Z,97.3558
2023-01-17T15:19:02.449Z,71.97955
2023-01-17T15:24:03.411Z,51.8592
2023-01-17T15:29:04.355Z,35.40885
2023-01-17T15:34:05.259Z,19.3274
2023-01-17T15:39:06.184Z,11.9874
2023-01-17T15:44:07.159Z,5.0163
2023-01-17T15:49:08.180Z,2.50815
2023-01-17T15:54:09.160Z,1.3463
2023-01-17T15:59:10.097Z,0.4148
2023-01-17T16:04:11.016Z,0.4148
2023-01-17T16:09:11.998Z,0.0
2023-01-17T16:14:12.927Z,0.0
2023-01-17T16:19:13.829Z,0.0
2023-01-17T16:24:14.781Z,0.0
2023-01-17T16:29:15.745Z,0.0
2023-01-17T16:34:16.704Z,0.0
2023-01-17T16:39:17.627Z,0.0
2023-01-17T16:44:18.592Z,0.0
2023-01-17T16:49:19.532Z,0.0
2023-01-17T16:54:20.496Z,0.0
2023-01-17T16:59:21.392Z,0.0
2023-01-17T17:04:22.277Z,0.0
2023-01-17T17:09:23.250Z,0.0
2023-01-17T17:14:24.155Z,0.0
2023-01-17T17:19:25.055Z,0.0
2023-01-17T17:24:25.999Z,0.0
2023-01-17T17:29:26.974Z,0.0
2023-01-17T17:34:27.874Z,0.0
2023-01-17T17:39:28.804Z,0.0
2023-01-17T17:44:29.747Z,0.0
2023-01-17T17:49:30.671Z,0.0
2023-01-17T17:54:31.636Z,0.0
2023-01-17T17:59:32.552Z,0.0
2023-01-17T18:04:33.507Z,0.0
2023-01-17T18:09:34.454Z,0.0
2023-01-17T18:14:35.355Z,0.0
2023-01-17T18:19:36.283Z,0.0
2023-01-17T18:24:37.215Z,0.0
2023-01-17T18:29:38.541Z,0.0
2023-01-17T18:34:39.575Z,0.0
2023-01-17T18:39:40.470Z,0.0
2023-01-17T18:44:41.455Z,0.0
2023-01-17T18:49:42.383Z,0.0
2023-01-17T18:54:43.321Z,0.0
2023-01-17T18:59:44.257Z,0.0
2023-01-17T19:04:45.411Z,0.0
2023-01-17T19:09:46.725Z,0.0
2023-01-17T19:14:47.655Z,0.0
2023-01-17T19:19:48.840Z,0.0
2023-01-17T19:24:50.240Z,0.0
2023-01-17T19:29:51.208Z,0.0
2023-01-17T19:34:52.152Z,0.0
2023-01-17T19:39:53.070Z,0.0
2023-01-17T19:44:53.997Z,0.0
2023-01-17T19:49:55.072Z,0.0
2023-01-17T19:54:56.028Z,0.0
2023-01-17T19:59:56.978Z,0.0
2023-01-17T20:04:57.932Z,0.0
2023-01-17T20:09:58.848Z,0.0
2023-01-17T20:14:59.781Z,0.0
2023-01-17T20:20:00.733Z,0.0
2023-01-17T20:25:01.702Z,0.0
2023-01-17T20:30:14.827Z,0.0
2023-01-17T20:35:20.591Z,0.0
2023-01-17T20:40:21.541Z,0.0
2023-01-17T20:45:22.488Z,0.0
2023-01-17T20:50:23.418Z,0.0
2023-01-17T20:55:24.433Z,0.0
2023-01-17T21:00:25.403Z,0.0
2023-01-17T21:05:26.737Z,0.0
2023-01-17T21:10:32.888Z,0.0
2023-01-17T21:15:33.917Z,0.0
2023-01-17T21:20:35.300Z,0.0
2023-01-17T21:25:36.250Z,0.0
2023-01-17T21:30:37.255Z,0.0
2023-01-17T21:35:38.233Z,0.0
2023-01-17T21:40:39.230Z,0.0
2023-01-17T21:45:40.204Z,0.0
2023-01-17T21:50:41.159Z,0.0
2023-01-17T21:55:42.112Z,0.0
2023-01-17T22:00:43.055Z,0.0
2023-01-17T22:05:44.023Z,0.0
2023-01-17T22:10:45.069Z,0.0
2023-01-17T22:15:46.273Z,0.0
2023-01-17T22:20:47.318Z,0.0
2023-01-17T22:25:48.269Z,0.0
2023-01-17T22:30:49.244Z,0.0
2023-01-17T22:35:50.211Z,0.0
2023-01-17T22:40:51.180Z,0.0
2023-01-17T22:45:52.093Z,0.0
2023-01-17T22:50:53.003Z,0.0
2023-01-17T22:55:54.008Z,0.0
2023-01-17T23:00:54.939Z,0.0
2023-01-17T23:05:55.878Z,0.0
2023-01-17T23:10:56.836Z,0.0
2023-01-17T23:15:58.181Z,0.0
2023-01-17T23:21:05.298Z,0.0
2023-01-17T23:26:06.244Z,0.0
2023-01-17T23:31:07.264Z,0.0
2023-01-17T23:36:08.205Z,0.0
2023-01-17T23:41:09.144Z,0.0
2023-01-17T23:46:10.130Z,0.0
2023-01-17T23:51:11.039Z,0.0
2023-01-17T23:56:12.041Z,0.0
